»·PEaware :: CREEP24 KEND-KEND

CREEP24 :: KEND-KEND

FLIGHT INFORMATION

Flight Status: Arrived
Operator: Unknown
More flights by this operator :: More flights under this callsign
Pilot: A. L. (21540)
Aircraft: BEECH AIRCRAFT T-6A TEXAN
(TEX2)
More flights by this aircraft type
Origin: KEND Vance AFB
United States
Destination: KEND Vance AFB
United States
More flights between these airports :: More routes between these airports
Route: +AVK
File this flight plan on PilotEdge
Remarks:
Altitude:
(Current/Filed)
0ft
Speed:
(Current/Filed)
0kts
Departed: 17-Sep-20 06:47 AM
Arrived: 17-Sep-20 07:38 AM
Distance/Time
Traveled:
0nm/0:51
Distance/Time
To Go:
Arrived

Flight Plot

Page will automatically refresh every two minutes.

Flight plan parsing failed; only flown route is shown


Map Options




Map Legend


Flown Route
Filed Route
Departure Airport
Arrival Airport
Navaid (VOR, NDB)
Fix

Horizontal Profiles

Position Reports

Time Latitude Longitude Heading Altitude Ground
Speed
17-Sep-20 06:45 36.346972 -97.910204 219 1279ft 0kts
17-Sep-20 06:46 36.336164 -97.911024 180 1474ft 142kts
17-Sep-20 06:47 36.282678 -97.906439 179 3277ft 211kts
17-Sep-20 06:48 36.234950 -97.877201 89 4918ft 226kts
17-Sep-20 06:49 36.288756 -97.860734 342 5143ft 244kts
17-Sep-20 06:50 36.357541 -97.882000 343 5056ft 230kts
17-Sep-20 06:51 36.427591 -97.906950 349 5064ft 260kts
17-Sep-20 06:52 36.498161 -97.903552 356 5241ft 208kts
17-Sep-20 06:53 36.556073 -97.902076 359 6119ft 192kts
17-Sep-20 06:54 36.606848 -97.914176 286 5977ft 197kts
17-Sep-20 06:55 36.625277 -97.980934 290 5918ft 201kts
17-Sep-20 06:56 36.643478 -98.047132 288 5972ft 207kts
17-Sep-20 06:57 36.661541 -98.115899 288 4963ft 225kts
17-Sep-20 06:58 36.678903 -98.186781 286 4005ft 205kts
17-Sep-20 07:00 36.701962 -98.248178 298 4516ft 180kts
17-Sep-20 07:01 36.731011 -98.304389 300 4597ft 189kts
17-Sep-20 07:02 36.760091 -98.361811 297 4546ft 203kts
17-Sep-20 07:03 36.787369 -98.423330 288 4495ft 198kts
17-Sep-20 07:04 36.797431 -98.490746 276 4431ft 199kts
17-Sep-20 07:05 36.808133 -98.557682 278 4425ft 203kts
17-Sep-20 07:06 36.814471 -98.626891 267 4329ft 198kts
17-Sep-20 07:07 36.781001 -98.680024 196 2671ft 202kts
17-Sep-20 07:08 36.759623 -98.670340 355 1624ft 158kts
17-Sep-20 07:09 36.793795 -98.675998 270 2439ft 129kts
17-Sep-20 07:10 36.762205 -98.683158 181 2694ft 118kts
17-Sep-20 07:11 36.767381 -98.670447 1 1475ft 106kts
17-Sep-20 07:14 36.755460 -98.668711 140 2820ft 136kts
17-Sep-20 07:15 36.756620 -98.616297 86 4612ft 150kts
17-Sep-20 07:16 36.755707 -98.561401 94 5775ft 177kts
17-Sep-20 07:16 36.751483 -98.508000 97 5548ft 184kts
17-Sep-20 07:18 36.740047 -98.435465 103 5531ft 183kts
17-Sep-20 07:19 36.726591 -98.374561 107 5549ft 181kts
17-Sep-20 07:19 36.713221 -98.324578 103 5587ft 180kts
17-Sep-20 07:20 36.698540 -98.264163 108 5506ft 185kts
17-Sep-20 07:22 36.686720 -98.192127 92 5575ft 180kts
17-Sep-20 07:22 36.686048 -98.139721 91 5443ft 190kts
17-Sep-20 07:23 36.684287 -98.076083 93 5555ft 169kts
17-Sep-20 07:24 36.688046 -98.018839 89 5576ft 166kts
17-Sep-20 07:25 36.690247 -97.956807 81 6121ft 172kts
17-Sep-20 07:26 36.690593 -97.892013 97 6035ft 183kts
17-Sep-20 07:27 36.680455 -97.827383 99 6002ft 182kts
17-Sep-20 07:28 36.636418 -97.798468 180 3718ft 194kts
17-Sep-20 07:29 36.588279 -97.803554 194 3037ft 155kts
17-Sep-20 07:30 36.546412 -97.817719 197 3009ft 159kts
17-Sep-20 07:31 36.506698 -97.839565 212 3039ft 152kts
17-Sep-20 07:32 36.478903 -97.879515 238 2954ft 155kts
17-Sep-20 07:33 36.445567 -97.908410 185 3032ft 156kts
17-Sep-20 07:34 36.403849 -97.909321 184 2516ft 140kts
17-Sep-20 07:35 36.366862 -97.910863 180 1746ft 125kts
17-Sep-20 07:36 36.337587 -97.910949 179 1288ft 65kts
17-Sep-20 07:37 36.333473 -97.910195 39 1291ft 19kts
17-Sep-20 07:38 36.333473 -97.910195 39 1291ft 19kts
17-Sep-20 07:39 36.333473 -97.910195 39 1291ft 19kts
17-Sep-20 07:40 36.333473 -97.910195 39 1291ft 19kts
17-Sep-20 07:41 36.333473 -97.910195 39 1291ft 19kts
17-Sep-20 07:42 36.333473 -97.910195 39 1291ft 19kts
17-Sep-20 07:43 36.333473 -97.910195 39 1291ft 19kts
17-Sep-20 07:44 36.333473 -97.910195 39 1291ft 19kts
17-Sep-20 07:45 36.333473 -97.910195 39 1291ft 19kts
17-Sep-20 07:46 36.333473 -97.910195 39 1291ft 19kts
17-Sep-20 07:47 36.333473 -97.910195 39 1291ft 19kts
17-Sep-20 07:48 36.333473 -97.910195 39 1291ft 19kts
17-Sep-20 07:49 36.333473 -97.910195 39 1291ft 19kts
17-Sep-20 07:50 36.333473 -97.910195 39 1291ft 19kts
17-Sep-20 07:51 36.333473 -97.910195 39 1291ft 19kts

Navigation Log

Ident Type
Flight plan parsing failed, navigation log unavailable